Etusivu
METAR-TAF:

METAR-TAF

Lentoasemat :

Garner Field

Uvalde, Texas, Yhdysvallat

Leveyspiiri: 29-12-40N, Pituuspiiri: 099-44-36W, korkeus merenpinnasta: 287 m

Tämänhetkinen sää

Tämä raportti tehtiin 24 minuuttia sitten, kello 03.15 UTC
Tuuli 3 kn kaakosta
Lämpötila 17°C
Kosteus 36%
Ilmanpaine 1007 hPa
Näkyvyys: 16.1 km
selkeää

METAR: KUVA 150315Z AUTO 13003KT 10SM CLR 17/02 A2975 RMK AO2 T01700015

Aika: 21:39 (03:39 UTC)


TAF: puuttuu

Säähavainnot ja -ennusteet yli 4000 lentoasemalta (METAR- ja TAF-raportit).

Käytössä olevat sääasemat on merkitty karttaan keltaisilla ja punaisilla pisteillä.

Aseta hiiri pisteen päälle nähdäksesi sääaseman nimen.

Klikkaa sitten nähdäksesi säähavainnot ja -ennusteet.

Kartan vaihtaminen: klikkaa mustalla rastilla varustettuja vihreitä pisteitä, niin voit zoomata sisään; viivalla varustettua vihreää pistettä, niin voit zoomata ulos tai vihreitä nuolia, niin pääset viereisille kartoille.


METAR-TAF: